Time;durP1;ratioP1;P1;durP2;ratioP2;P2;SDS_P1;SDS_P2;PMS_P1;PMS_P2;Temp;Humidity;BMP_temperature;BMP_pressure;BME280_temperature;BME280_humidity;BME280_pressure;Samples;Min_cycle;Max_cycle;Signal;HPM_P1;HPM_P2
2022/04/14 00:01:56;;;;;;;;;;;;;;;17.36;95.96;97828.78;5077143;28;19980;-73
2022/04/14 00:04:23;;;;;;;;;;;;;;;17.38;96.15;97834.69;5076634;28;19971;-73
2022/04/14 00:06:49;;;;;;;;;;;;;;;17.44;95.51;97832.66;5076399;28;19972;-73
2022/04/14 00:09:15;;;;;;;;;;;;;;;17.50;94.82;97826.00;5079744;28;19928;-73
2022/04/14 00:11:42;;;;;;;;;;;;;;;17.48;95.00;97834.44;5079195;28;19925;-74
2022/04/14 00:14:08;;;;;;;;;;;;;;;17.45;94.71;97835.06;5070927;28;19996;-73
2022/04/14 00:16:36;;;;;;;;;;;;;;;17.46;94.72;97820.44;5079178;28;19920;-73
2022/04/14 00:19:03;;;;;;;;;;;;;;;17.45;94.99;97834.25;5076344;28;19928;-73
2022/04/14 00:21:29;;;;;;;;;;;;;;;17.36;95.32;97825.31;5075707;28;19963;-73
2022/04/14 00:23:56;;;;;;;;;;;;;;;17.39;95.35;97830.09;5077351;28;19925;-73
2022/04/14 00:26:22;;;;;;;;;;;;;;;17.33;95.82;97832.09;5078871;28;19974;-73
2022/04/14 00:28:48;;;;;;;;;;;;;;;17.22;96.23;97834.28;5078066;28;19948;-73
2022/04/14 00:31:15;;;;;;;;;;;;;;;17.23;96.42;97833.19;5075376;28;19967;-74
2022/04/14 00:33:42;;;;;;;;;;;;;;;17.26;96.05;97834.47;5075329;28;19972;-74
2022/04/14 00:36:09;;;;;;;;;;;;;;;17.28;95.77;97830.34;5067082;28;19952;-73
2022/04/14 00:38:35;;;;;;;;;;;;;;;17.21;95.89;97829.16;5075215;28;19931;-73
2022/04/14 00:41:02;;;;;;;;;;;;;;;17.22;96.09;97828.88;5077864;28;19924;-73
2022/04/14 00:43:31;;;;;;;;;;;;;;;17.24;95.75;97826.66;5072495;28;19960;-73
2022/04/14 00:45:59;;;;;;;;;;;;;;;17.23;95.70;97833.19;5075954;28;19966;-74
2022/04/14 00:48:25;;;;;;;;;;;;;;;17.21;95.76;97835.38;5078526;28;19992;-74
2022/04/14 00:50:53;;;;;;;;;;;;;;;17.21;95.92;97826.47;5076228;28;20456;-74
2022/04/14 00:53:20;;;;;;;;;;;;;;;17.20;95.95;97832.97;5073668;28;19920;-74
2022/04/14 00:55:46;;;;;;;;;;;;;;;17.21;95.67;97824.56;5075134;28;20018;-74
2022/04/14 00:58:13;;;;;;;;;;;;;;;17.22;95.35;97822.66;5078081;28;19999;-74
2022/04/14 01:00:39;;;;;;;;;;;;;;;17.14;96.00;97829.59;5077105;28;19962;-74
2022/04/14 01:03:06;;;;;;;;;;;;;;;17.12;96.31;97825.63;5074308;28;19925;-74
2022/04/14 01:05:33;;;;;;;;;;;;;;;17.11;96.33;97826.75;5075356;28;19929;-74
2022/04/14 01:08:01;;;;;;;;;;;;;;;17.09;96.28;97821.63;5077457;28;19925;-74
2022/04/14 01:10:28;;;;;;;;;;;;;;;16.99;97.06;97831.88;5078706;28;19960;-74
2022/04/14 01:12:54;;;;;;;;;;;;;;;16.94;97.47;97832.78;5067454;28;19960;-74
2022/04/14 01:15:21;;;;;;;;;;;;;;;16.83;98.56;97834.13;5074850;28;19956;-73
2022/04/14 01:17:47;;;;;;;;;;;;;;;16.82;98.64;97840.63;5075243;28;19947;-73
2022/04/14 01:20:14;;;;;;;;;;;;;;;16.58;99.56;97845.50;5078266;28;19988;-73
2022/04/14 01:22:43;;;;;;;;;;;;;;;16.76;99.12;97827.56;5077773;28;19924;-73
2022/04/14 01:25:10;;;;;;;;;;;;;;;16.83;98.49;97839.53;5053544;28;19951;-74
2022/04/14 01:27:37;;;;;;;;;;;;;;;16.85;98.13;97831.94;5066442;28;19956;-74
2022/04/14 01:30:04;;;;;;;;;;;;;;;16.80;98.22;97840.13;5092110;28;19930;-74
2022/04/14 01:32:30;;;;;;;;;;;;;;;16.79;98.10;97840.44;5077848;28;19920;-74
2022/04/14 01:34:57;;;;;;;;;;;;;;;16.82;98.01;97837.13;5075625;28;19935;-73
2022/04/14 01:37:23;;;;;;;;;;;;;;;16.84;97.77;97851.09;5074203;28;19921;-73
2022/04/14 01:39:50;;;;;;;;;;;;;;;16.67;98.29;97857.94;5075047;28;19956;-74
2022/04/14 01:42:18;;;;;;;;;;;;;;;16.64;99.51;97857.75;5073218;28;19925;-73
2022/04/14 01:44:44;;;;;;;;;;;;;;;16.71;98.80;97847.38;5074113;28;19931;-73
2022/04/14 01:47:10;;;;;;;;;;;;;;;16.65;99.01;97853.94;5074205;28;19925;-73
2022/04/14 01:49:37;;;;;;;;;;;;;;;16.72;98.70;97854.31;5074045;28;20144;-73
2022/04/14 01:52:03;;;;;;;;;;;;;;;16.63;98.60;97856.16;5076740;28;19939;-73
2022/04/14 01:54:29;;;;;;;;;;;;;;;16.58;99.25;97854.38;5077573;28;19924;-73
2022/04/14 01:56:56;;;;;;;;;;;;;;;16.56;99.53;97853.88;5075827;28;19983;-73
2022/04/14 01:59:26;;;;;;;;;;;;;;;16.59;99.14;97838.97;5073032;28;19964;-73
2022/04/14 02:01:53;;;;;;;;;;;;;;;16.64;98.63;97852.38;5075607;28;19959;-73
2022/04/14 02:04:19;;;;;;;;;;;;;;;16.60;98.52;97852.16;5077309;28;19996;-73
2022/04/14 02:06:45;;;;;;;;;;;;;;;16.68;97.73;97848.75;5077052;28;19983;-73
2022/04/14 02:09:12;;;;;;;;;;;;;;;16.70;97.19;97845.75;5074149;28;19928;-73
2022/04/14 02:11:38;;;;;;;;;;;;;;;16.70;96.92;97853.84;5074088;28;19921;-73
2022/04/14 02:14:05;;;;;;;;;;;;;;;16.59;97.32;97842.47;5067589;28;19988;-73
2022/04/14 02:16:32;;;;;;;;;;;;;;;16.46;99.05;97845.19;5077605;28;19924;-74
2022/04/14 02:18:59;;;;;;;;;;;;;;;16.44;99.11;97841.97;5074766;28;19924;-74
2022/04/14 02:21:25;;;;;;;;;;;;;;;16.49;98.68;97856.16;5072564;28;20011;-74
2022/04/14 02:23:51;;;;;;;;;;;;;;;16.50;98.43;97846.16;5074674;28;19960;-74
2022/04/14 02:26:19;;;;;;;;;;;;;;;16.51;98.34;97853.16;5077145;28;19924;-74
2022/04/14 02:28:45;;;;;;;;;;;;;;;16.39;98.80;97850.97;5076792;28;20007;-74
2022/04/14 02:31:12;;;;;;;;;;;;;;;16.31;99.37;97851.66;5073581;28;19924;-74
2022/04/14 02:33:40;;;;;;;;;;;;;;;16.39;99.38;97844.78;5072331;28;19971;-74
2022/04/14 02:36:08;;;;;;;;;;;;;;;16.37;99.47;97853.16;5068306;28;21497;-74
2022/04/14 02:38:34;;;;;;;;;;;;;;;16.36;99.50;97854.28;5076276;28;19925;-74
2022/04/14 02:41:00;;;;;;;;;;;;;;;16.34;99.45;97850.28;5079701;28;19935;-73
2022/04/14 02:43:27;;;;;;;;;;;;;;;16.31;99.59;97854.38;5074501;28;19975;-74
2022/04/14 02:45:53;;;;;;;;;;;;;;;16.28;99.66;97859.59;5078680;28;19988;-74
2022/04/14 02:48:19;;;;;;;;;;;;;;;16.26;99.90;97859.88;5080761;28;19976;-74
2022/04/14 02:50:47;;;;;;;;;;;;;;;16.28;99.91;97857.66;5080030;28;19931;-73
2022/04/14 02:53:13;;;;;;;;;;;;;;;16.31;99.48;97853.59;5076804;28;19991;-74
2022/04/14 02:55:41;;;;;;;;;;;;;;;16.33;99.25;97857.56;5075859;28;19935;-74
2022/04/14 02:58:08;;;;;;;;;;;;;;;16.30;99.50;97852.00;5080334;28;19924;-74
2022/04/14 03:00:34;;;;;;;;;;;;;;;16.29;99.59;97855.78;5080401;28;19920;-74
2022/04/14 03:03:01;;;;;;;;;;;;;;;16.23;99.94;97865.06;5076737;28;19988;-74
2022/04/14 03:05:27;;;;;;;;;;;;;;;16.19;100.00;97862.97;5076524;28;19927;-75
2022/04/14 03:07:54;;;;;;;;;;;;;;;16.23;99.92;97871.25;5078133;28;20006;-74
2022/04/14 03:10:21;;;;;;;;;;;;;;;16.24;99.63;97866.66;5080194;28;19955;-74
2022/04/14 03:12:49;;;;;;;;;;;;;;;16.18;100.00;97877.53;5071730;28;19988;-74
2022/04/14 03:15:16;;;;;;;;;;;;;;;16.22;99.93;97872.34;5076519;28;19927;-74
2022/04/14 03:17:42;;;;;;;;;;;;;;;16.24;99.52;97870.16;5076421;28;19929;-74
2022/04/14 03:20:09;;;;;;;;;;;;;;;16.23;99.42;97865.06;5068363;28;19929;-74
2022/04/14 03:22:36;;;;;;;;;;;;;;;16.20;99.49;97869.97;5074903;28;19980;-74
2022/04/14 03:25:05;;;;;;;;;;;;;;;16.22;99.00;97866.16;5078696;28;19925;-74
2022/04/14 03:27:32;;;;;;;;;;;;;;;16.25;98.54;97870.97;5079953;28;19984;-74
2022/04/14 03:29:58;;;;;;;;;;;;;;;16.26;98.21;97861.75;5077862;28;19979;-74
2022/04/14 03:32:25;;;;;;;;;;;;;;;16.26;97.93;97861.75;5076863;28;20512;-74
2022/04/14 03:34:51;;;;;;;;;;;;;;;16.19;98.16;97859.47;5077717;28;19928;-73
2022/04/14 03:37:18;;;;;;;;;;;;;;;16.14;98.31;97865.78;5080140;28;19943;-74
2022/04/14 03:39:44;;;;;;;;;;;;;;;16.05;99.04;97864.88;5079531;28;19952;-74
2022/04/14 03:42:12;;;;;;;;;;;;;;;16.01;99.58;97868.44;5074884;28;19931;-74
2022/04/14 03:44:38;;;;;;;;;;;;;;;15.95;99.84;97872.34;5075796;28;19992;-74
2022/04/14 03:47:05;;;;;;;;;;;;;;;15.97;99.96;97870.94;5076410;28;19984;-74
2022/04/14 03:49:31;;;;;;;;;;;;;;;15.94;100.00;97874.22;5076189;28;19935;-74
2022/04/14 03:51:57;;;;;;;;;;;;;;;15.94;100.00;97871.53;5078128;28;19955;-74
2022/04/14 03:54:24;;;;;;;;;;;;;;;15.97;99.88;97878.22;5079527;28;19931;-74
2022/04/14 03:56:50;;;;;;;;;;;;;;;15.94;99.74;97871.53;5078356;28;19925;-74
2022/04/14 03:59:18;;;;;;;;;;;;;;;15.91;100.00;97877.50;5074420;28;19936;-74
2022/04/14 04:01:44;;;;;;;;;;;;;;;15.86;100.00;97880.31;5076026;28;19978;-74
2022/04/14 04:04:11;;;;;;;;;;;;;;;15.83;100.00;97880.91;5079392;28;19983;-74
2022/04/14 04:06:37;;;;;;;;;;;;;;;15.89;100.00;97887.78;5079233;28;19991;-74
2022/04/14 04:09:04;;;;;;;;;;;;;;;15.90;100.00;97884.00;5075220;28;19964;-74
2022/04/14 04:11:30;;;;;;;;;;;;;;;15.90;99.90;97889.41;5075958;28;19947;-74
2022/04/14 04:13:56;;;;;;;;;;;;;;;15.92;99.92;97891.78;5075859;28;19963;-74
2022/04/14 04:16:24;;;;;;;;;;;;;;;15.95;99.64;97885.81;5075875;28;19948;-74
2022/04/14 04:18:50;;;;;;;;;;;;;;;15.82;100.00;97890.06;5076613;28;19984;-74
2022/04/14 04:21:17;;;;;;;;;;;;;;;15.48;100.00;97900.34;5079061;28;19935;-74
2022/04/14 04:23:43;;;;;;;;;;;;;;;15.46;100.00;97897.13;5078879;28;19980;-74
2022/04/14 04:26:10;;;;;;;;;;;;;;;15.41;100.00;97902.63;5068280;28;19947;-74
2022/04/14 04:28:36;;;;;;;;;;;;;;;15.51;100.00;97905.16;5076475;28;19971;-74
2022/04/14 04:31:02;;;;;;;;;;;;;;;15.27;100.00;97899.06;5079104;28;19924;-74
2022/04/14 04:33:30;;;;;;;;;;;;;;;15.28;100.00;97906.84;5079421;28;19960;-74
2022/04/14 04:35:56;;;;;;;;;;;;;;;15.19;100.00;97908.63;5077780;28;19931;-73
2022/04/14 04:38:23;;;;;;;;;;;;;;;15.38;100.00;97913.97;5076241;28;19964;-73
2022/04/14 04:40:49;;;;;;;;;;;;;;;15.49;100.00;97907.34;5075886;28;19968;-73
2022/04/14 04:43:16;;;;;;;;;;;;;;;15.63;100.00;97916.25;5078153;28;19932;-73
2022/04/14 04:45:42;;;;;;;;;;;;;;;15.70;100.00;97919.38;5078309;28;19925;-73
2022/04/14 04:48:09;;;;;;;;;;;;;;;15.65;100.00;97922.16;5065452;28;19929;-73
2022/04/14 04:50:37;;;;;;;;;;;;;;;15.68;100.00;97926.94;5074634;28;20188;-73
2022/04/14 04:53:04;;;;;;;;;;;;;;;15.72;100.00;97927.94;5077317;28;19960;-73
2022/04/14 04:55:32;;;;;;;;;;;;;;;15.70;100.00;97930.13;5076721;28;19960;-73
2022/04/14 04:57:58;;;;;;;;;;;;;;;15.71;100.00;97926.34;5073818;28;19920;-74
2022/04/14 05:00:25;;;;;;;;;;;;;;;15.70;100.00;97932.03;5073159;28;19925;-74
2022/04/14 05:02:51;;;;;;;;;;;;;;;15.66;100.00;97929.94;5074357;28;19931;-74
2022/04/14 05:05:17;;;;;;;;;;;;;;;15.64;100.00;97936.69;5077915;28;19931;-74
2022/04/14 05:07:45;;;;;;;;;;;;;;;15.68;100.00;97937.72;5077968;28;19931;-74
2022/04/14 05:10:11;;;;;;;;;;;;;;;15.70;100.00;97940.09;5073189;28;20012;-74
2022/04/14 05:12:38;;;;;;;;;;;;;;;15.60;100.00;97947.25;5074535;28;19924;-74
2022/04/14 05:15:04;;;;;;;;;;;;;;;15.42;100.00;97944.56;5073435;28;19960;-74
2022/04/14 05:17:31;;;;;;;;;;;;;;;15.02;100.00;97954.84;5074622;28;19921;-75
2022/04/14 05:19:57;;;;;;;;;;;;;;;14.86;100.00;97952.63;5076292;28;19932;-73
2022/04/14 05:22:23;;;;;;;;;;;;;;;14.38;100.00;97954.59;5076756;28;19920;-73
2022/04/14 05:24:51;;;;;;;;;;;;;;;14.44;100.00;97956.13;5076818;28;19924;-73
2022/04/14 05:27:18;;;;;;;;;;;;;;;14.38;100.00;97957.28;5074312;28;19925;-74
2022/04/14 05:29:44;;;;;;;;;;;;;;;14.23;100.00;97960.09;5074468;28;19988;-73
2022/04/14 05:32:10;;;;;;;;;;;;;;;14.50;100.00;97955.78;5077897;28;19951;-74
2022/04/14 05:34:37;;;;;;;;;;;;;;;14.93;100.00;97950.41;5076573;28;19925;-74
2022/04/14 05:37:03;;;;;;;;;;;;;;;15.19;100.00;97954.34;5073616;28;20001;-74
2022/04/14 05:39:30;;;;;;;;;;;;;;;15.24;100.00;97956.16;5074327;28;19951;-73
2022/04/14 05:41:57;;;;;;;;;;;;;;;15.38;100.00;97954.34;5074357;28;19976;-74
2022/04/14 05:44:24;;;;;;;;;;;;;;;15.28;100.00;97954.47;5074296;28;19925;-74
2022/04/14 05:46:50;;;;;;;;;;;;;;;14.98;100.00;97950.31;5075138;28;19983;-74
2022/04/14 05:49:18;;;;;;;;;;;;;;;14.94;100.00;97957.38;5077748;28;19924;-74
2022/04/14 05:51:45;;;;;;;;;;;;;;;14.61;100.00;97963.72;5076200;28;19955;-73
2022/04/14 05:54:11;;;;;;;;;;;;;;;14.94;100.00;97968.13;5074374;28;19956;-74
2022/04/14 05:56:37;;;;;;;;;;;;;;;14.53;100.00;97959.78;5073086;28;19962;-73
2022/04/14 05:59:05;;;;;;;;;;;;;;;14.63;100.00;97959.66;5077013;28;19928;-73
2022/04/14 06:01:32;;;;;;;;;;;;;;;14.76;100.00;97956.25;5077687;28;19924;-73
2022/04/14 06:03:58;;;;;;;;;;;;;;;14.74;100.00;97963.00;5074703;28;19954;-74
2022/04/14 06:06:24;;;;;;;;;;;;;;;14.73;100.00;97959.50;5074435;28;19921;-74
2022/04/14 06:08:51;;;;;;;;;;;;;;;15.13;100.00;97963.56;5077011;28;19943;-74
2022/04/14 06:11:18;;;;;;;;;;;;;;;15.78;100.00;97959.09;5080592;28;19925;-74
2022/04/14 06:13:44;;;;;;;;;;;;;;;16.11;100.00;97957.97;5081270;28;19920;-74
2022/04/14 06:16:12;;;;;;;;;;;;;;;16.10;100.00;97959.06;5078198;28;19984;-73
2022/04/14 06:18:38;;;;;;;;;;;;;;;16.12;100.00;97953.38;5076554;28;20015;-74
2022/04/14 06:21:05;;;;;;;;;;;;;;;16.67;100.00;97956.91;5080552;28;19956;-74
2022/04/14 06:23:31;;;;;;;;;;;;;;;16.78;99.42;97963.69;5081328;28;19984;-74
2022/04/14 06:25:57;;;;;;;;;;;;;;;16.82;97.88;97966.59;5079080;28;19956;-74
2022/04/14 06:28:24;;;;;;;;;;;;;;;16.78;99.64;97977.16;5077706;28;19996;-74
2022/04/14 06:30:51;;;;;;;;;;;;;;;17.08;98.11;97964.97;5077453;28;19952;-74
2022/04/14 06:33:20;;;;;;;;;;;;;;;17.19;96.34;97960.91;5080699;28;19951;-74
2022/04/14 06:35:47;;;;;;;;;;;;;;;17.41;95.37;97960.16;5081069;28;19925;-74
2022/04/14 06:38:13;;;;;;;;;;;;;;;17.13;95.80;97957.53;5076864;28;19964;-73
2022/04/14 06:40:40;;;;;;;;;;;;;;;16.56;99.73;97975.19;5076692;28;19925;-74
2022/04/14 06:43:06;;;;;;;;;;;;;;;16.88;100.00;97960.78;5077464;28;19925;-74
2022/04/14 06:45:33;;;;;;;;;;;;;;;17.16;99.04;97962.34;5076507;28;19924;-73
2022/04/14 06:47:59;;;;;;;;;;;;;;;17.61;95.49;97974.00;5079928;28;20015;-72
2022/04/14 06:50:27;;;;;;;;;;;;;;;17.91;92.99;97972.47;5081197;28;19925;-73
2022/04/14 06:52:53;;;;;;;;;;;;;;;18.01;92.04;97984.94;5079685;28;19995;-75
2022/04/14 06:55:21;;;;;;;;;;;;;;;18.15;90.91;97978.31;5077624;28;19980;-73
2022/04/14 06:57:48;;;;;;;;;;;;;;;18.08;89.57;97977.97;5077924;28;19955;-72
2022/04/14 07:00:15;;;;;;;;;;;;;;;18.03;92.39;97977.28;5080871;28;19936;-72
2022/04/14 07:02:45;;;;;;;;;;;;;;;17.56;92.16;97970.63;5080961;28;19924;-73
2022/04/14 07:05:12;;;;;;;;;;;;;;;17.27;96.02;97979.09;5069517;28;20001;-73
2022/04/14 07:07:40;;;;;;;;;;;;;;;17.13;95.94;97973.72;5077635;28;19984;-73
2022/04/14 07:10:06;;;;;;;;;;;;;;;16.86;97.06;97973.78;5079886;28;19931;-74
2022/04/14 07:12:33;;;;;;;;;;;;;;;16.84;96.46;97970.56;5073977;28;19925;-73
2022/04/14 07:15:00;;;;;;;;;;;;;;;17.40;98.14;97972.03;5079245;28;19960;-73
2022/04/14 07:17:26;;;;;;;;;;;;;;;16.89;93.91;97983.16;5080252;28;19925;-73
2022/04/14 07:19:53;;;;;;;;;;;;;;;16.54;96.58;97976.56;5078163;28;19967;-73
2022/04/14 07:22:20;;;;;;;;;;;;;;;16.57;100.00;97976.00;5076949;28;19925;-73
2022/04/14 07:24:49;;;;;;;;;;;;;;;16.58;98.05;97974.91;5077265;28;19925;-73
2022/04/14 07:27:15;;;;;;;;;;;;;;;16.66;99.82;97976.88;5078911;28;19925;-73
2022/04/14 07:29:43;;;;;;;;;;;;;;;17.16;99.25;97970.44;5080203;28;19924;-74
2022/04/14 07:32:10;;;;;;;;;;;;;;;17.24;93.82;97979.69;5068484;28;19925;-73
2022/04/14 07:34:36;;;;;;;;;;;;;;;17.17;94.40;97973.94;5076247;28;19932;-73
2022/04/14 07:37:03;;;;;;;;;;;;;;;16.88;95.26;97968.88;5077677;28;19924;-74
2022/04/14 07:39:29;;;;;;;;;;;;;;;17.01;98.21;97975.34;5079894;28;19924;-73
2022/04/14 07:41:57;;;;;;;;;;;;;;;17.08;98.02;97971.13;5077873;28;19976;-73
2022/04/14 07:44:23;;;;;;;;;;;;;;;16.92;95.60;97967.19;5081326;28;19975;-73
2022/04/14 07:46:50;;;;;;;;;;;;;;;16.80;96.79;97985.78;5075639;28;19925;-73
2022/04/14 07:49:16;;;;;;;;;;;;;;;16.69;97.98;97978.97;5078475;28;19920;-73
2022/04/14 07:51:42;;;;;;;;;;;;;;;16.86;98.39;97976.47;5078411;28;19925;-73
2022/04/14 07:54:10;;;;;;;;;;;;;;;17.07;97.33;97974.94;5076319;28;19936;-73
2022/04/14 07:56:37;;;;;;;;;;;;;;;17.00;96.88;97971.84;5076163;28;19952;-73
2022/04/14 07:59:05;;;;;;;;;;;;;;;17.17;95.61;97977.44;5078785;28;19921;-74
2022/04/14 08:01:32;;;;;;;;;;;;;;;17.06;94.13;97975.22;5079947;28;19921;-75
2022/04/14 08:03:58;;;;;;;;;;;;;;;16.93;94.33;97974.16;5076302;28;19924;-74
2022/04/14 08:06:27;;;;;;;;;;;;;;;16.86;94.44;97973.78;5076109;28;19959;-74
2022/04/14 08:08:54;;;;;;;;;;;;;;;17.15;94.57;97985.00;5076234;28;19996;-75
2022/04/14 08:11:20;;;;;;;;;;;;;;;17.26;93.54;97983.69;5079502;28;19931;-75
2022/04/14 08:13:46;;;;;;;;;;;;;;;17.37;92.74;97986.16;5071436;28;19925;-75
2022/04/14 08:16:16;;;;;;;;;;;;;;;17.54;91.45;97986.31;5078576;28;19925;-75
2022/04/14 08:18:43;;;;;;;;;;;;;;;17.60;88.96;97980.53;5079164;28;19925;-75
2022/04/14 08:21:10;;;;;;;;;;;;;;;17.48;89.94;97985.63;5067711;28;19924;-75
2022/04/14 08:23:39;;;;;;;;;;;;;;;17.45;88.66;97994.34;5074640;28;19927;-74
2022/04/14 08:26:05;;;;;;;;;;;;;;;17.46;89.04;97995.13;5078477;28;21053;-74
2022/04/14 08:28:33;;;;;;;;;;;;;;;17.45;88.27;97990.84;5079656;28;19925;-75
2022/04/14 08:31:00;;;;;;;;;;;;;;;17.60;88.45;97985.13;5075734;28;19960;-75
2022/04/14 08:33:28;;;;;;;;;;;;;;;17.67;85.50;97994.38;5074912;28;19921;-74
2022/04/14 08:35:54;;;;;;;;;;;;;;;17.57;86.41;97988.44;5077299;28;19947;-75
2022/04/14 08:38:21;;;;;;;;;;;;;;;17.76;86.53;97989.81;5079204;28;20488;-75
2022/04/14 08:40:49;;;;;;;;;;;;;;;17.77;86.34;97993.34;5077416;28;19996;-75
2022/04/14 08:43:17;;;;;;;;;;;;;;;17.83;86.14;97985.91;5070767;28;19964;-74
2022/04/14 08:45:45;;;;;;;;;;;;;;;17.77;85.83;97980.63;5079426;28;19947;-74
2022/04/14 08:48:13;;;;;;;;;;;;;;;17.95;85.94;97978.84;5067472;28;19982;-74
2022/04/14 08:50:42;;;;;;;;;;;;;;;18.02;85.54;97984.59;5075094;28;19924;-74
2022/04/14 08:53:09;;;;;;;;;;;;;;;18.10;84.39;97983.88;5077300;28;19952;-75
2022/04/14 08:55:39;;;;;;;;;;;;;;;18.10;85.27;97985.78;5077353;28;19928;-75
2022/04/14 08:58:06;;;;;;;;;;;;;;;18.17;85.60;97988.81;5075493;28;19929;-75
2022/04/14 09:00:33;;;;;;;;;;;;;;;18.10;85.41;97985.78;5075049;28;20185;-75
2022/04/14 09:03:00;;;;;;;;;;;;;;;18.38;85.66;97983.69;5076856;28;19953;-75
2022/04/14 09:05:26;;;;;;;;;;;;;;;18.29;85.20;97980.91;5078355;28;20015;-75
2022/04/14 09:07:54;;;;;;;;;;;;;;;18.34;85.43;97986.22;5076023;28;19936;-75
2022/04/14 09:10:20;;;;;;;;;;;;;;;18.29;87.01;97984.44;5073465;28;19920;-75
2022/04/14 09:12:47;;;;;;;;;;;;;;;18.47;86.23;97993.44;5075220;28;19929;-75
2022/04/14 09:15:14;;;;;;;;;;;;;;;18.52;85.96;97987.91;5078283;28;19939;-76
2022/04/14 09:17:41;;;;;;;;;;;;;;;18.75;85.36;97991.34;5077696;28;20031;-75
2022/04/14 09:20:27;;;;;;;;;;;;;;;18.76;84.43;97992.91;5073430;28;19925;-76
2022/04/14 09:23:10;;;;;;;;;;;;;;;18.90;83.91;97999.03;5074568;28;19932;-76
2022/04/14 09:25:36;;;;;;;;;;;;;;;18.68;85.31;97982.88;5078002;28;19926;-76
2022/04/14 09:28:08;;;;;;;;;;;;;;;18.88;84.13;97980.38;5074116;28;19930;-76
2022/04/14 09:30:34;;;;;;;;;;;;;;;18.76;85.60;97982.09;5074543;28;19974;-76
2022/04/14 09:33:02;;;;;;;;;;;;;;;18.86;86.16;97979.09;5076614;28;19924;-76
2022/04/14 09:35:31;;;;;;;;;;;;;;;19.01;85.69;97972.44;5076626;28;19925;-76
2022/04/14 09:38:02;;;;;;;;;;;;;;;19.26;84.25;97968.97;5074931;28;19947;-76
2022/04/14 09:40:29;;;;;;;;;;;;;;;19.18;84.02;97969.78;5073449;28;19931;-75
2022/04/14 09:42:56;;;;;;;;;;;;;;;19.25;84.28;97968.19;5073912;28;19924;-76
2022/04/14 09:45:25;;;;;;;;;;;;;;;19.16;85.13;97963.88;5074443;28;19925;-76
2022/04/14 09:47:52;;;;;;;;;;;;;;;19.28;84.39;97972.97;5075634;28;19987;-76
2022/04/14 09:50:26;;;;;;;;;;;;;;;19.39;84.26;97977.00;5076985;28;19929;-78
2022/04/14 09:53:14;;;;;;;;;;;;;;;19.58;83.73;97971.25;5075779;28;19924;-77
2022/04/14 09:55:42;;;;;;;;;;;;;;;19.71;83.67;97981.09;5071266;28;19924;-77
2022/04/14 09:58:10;;;;;;;;;;;;;;;19.90;82.46;97973.44;5076698;28;20025;-77
2022/04/14 10:00:37;;;;;;;;;;;;;;;19.88;81.80;97977.59;5076679;28;19930;-77
2022/04/14 10:03:11;;;;;;;;;;;;;;;19.98;82.26;97981.88;5075181;28;19984;-77
2022/04/14 10:05:38;;;;;;;;;;;;;;;20.05;81.50;97984.91;5074412;28;19988;-76
2022/04/14 10:08:08;;;;;;;;;;;;;;;20.06;81.95;97981.84;5076930;28;19984;-77
2022/04/14 10:10:34;;;;;;;;;;;;;;;19.97;83.42;97977.56;5076635;28;19927;-76
2022/04/14 10:13:06;;;;;;;;;;;;;;;20.12;81.37;97975.13;5069573;28;20301;-76
2022/04/14 10:15:34;;;;;;;;;;;;;;;20.07;81.93;97978.03;5076702;28;19924;-76
2022/04/14 10:18:02;;;;;;;;;;;;;;;20.02;82.83;97983.66;5075387;28;19924;-76
2022/04/14 10:20:29;;;;;;;;;;;;;;;19.92;83.65;97973.13;5074449;28;19921;-76
2022/04/14 10:22:56;;;;;;;;;;;;;;;20.12;83.48;97979.75;5075506;28;19921;-76
2022/04/14 10:25:24;;;;;;;;;;;;;;;20.22;83.39;97963.97;5077283;28;19986;-76
2022/04/14 10:27:53;;;;;;;;;;;;;;;19.96;84.75;97973.28;5075527;28;20008;-77
2022/04/14 10:30:21;;;;;;;;;;;;;;;20.22;84.04;97974.81;5074120;28;19925;-77
2022/04/14 10:32:47;;;;;;;;;;;;;;;20.24;82.88;97971.78;5073043;28;19963;-77
2022/04/14 10:35:14;;;;;;;;;;;;;;;20.26;83.19;97977.69;5077315;28;20464;-77
2022/04/14 10:37:43;;;;;;;;;;;;;;;20.20;83.80;97973.53;5077228;28;19967;-76
2022/04/14 10:40:10;;;;;;;;;;;;;;;20.23;84.79;97976.41;5065562;28;19988;-77
2022/04/14 10:42:37;;;;;;;;;;;;;;;20.36;84.23;97974.63;5074087;28;19989;-77
2022/04/14 10:45:15;;;;;;;;;;;;;;;20.42;83.35;97974.13;5075230;28;19988;-77
2022/04/14 10:47:56;;;;;;;;;;;;;;;20.43;84.28;97969.50;5076237;28;19930;-76
2022/04/14 10:50:24;;;;;;;;;;;;;;;20.43;84.89;97975.72;5052448;28;19925;-75
2022/04/14 10:53:07;;;;;;;;;;;;;;;20.58;83.93;97971.66;5071878;28;19963;-75
2022/04/14 10:55:37;;;;;;;;;;;;;;;20.58;83.87;97965.47;5078351;28;19943;-75
2022/04/14 10:58:04;;;;;;;;;;;;;;;20.60;84.08;97968.63;5078166;28;19992;-74
2022/04/14 11:00:34;;;;;;;;;;;;;;;20.66;83.99;97964.59;5076084;28;19921;-75
2022/04/14 11:03:06;;;;;;;;;;;;;;;20.75;83.96;97970.78;5079337;28;20005;-75
2022/04/14 11:05:42;;;;;;;;;;;;;;;20.70;84.65;97958.22;5081056;28;19984;-76
2022/04/14 11:08:25;;;;;;;;;;;;;;;20.80;84.47;97965.16;5077306;28;19924;-75
2022/04/14 11:11:09;;;;;;;;;;;;;;;20.88;83.48;97964.34;5078100;28;19924;-75
2022/04/14 11:13:55;;;;;;;;;;;;;;;20.92;83.48;97965.28;5073524;28;19940;-75
2022/04/14 11:16:40;;;;;;;;;;;;;;;20.93;82.81;97972.28;5070766;28;19925;-76
2022/04/14 11:19:26;;;;;;;;;;;;;;;20.91;84.09;97969.09;5080040;28;19947;-76
2022/04/14 11:22:04;;;;;;;;;;;;;;;20.94;84.19;97965.72;5079275;28;20645;-76
2022/04/14 11:24:49;;;;;;;;;;;;;;;21.03;83.95;97966.47;5077128;28;19921;-76
2022/04/14 11:27:16;;;;;;;;;;;;;;;21.09;83.44;97967.91;5069545;28;19936;-76
2022/04/14 11:29:44;;;;;;;;;;;;;;;21.20;83.11;97971.81;5075629;28;19925;-76
2022/04/14 11:32:11;;;;;;;;;;;;;;;21.04;84.84;97964.56;5068470;28;19925;-75
2022/04/14 11:34:39;;;;;;;;;;;;;;;21.10;84.08;97955.13;5076597;28;20436;-75
2022/04/14 11:37:31;;;;;;;;;;;;;;;21.32;81.34;97941.22;5080255;28;20412;-75
2022/04/14 11:40:16;;;;;;;;;;;;;;;21.50;78.22;97943.47;5077933;28;19971;-75
2022/04/14 11:42:43;;;;;;;;;;;;;;;21.40;80.72;97951.22;5077137;28;19947;-75
2022/04/14 11:45:09;;;;;;;;;;;;;;;21.43;78.29;97950.56;5080706;28;19997;-75
2022/04/14 11:47:37;;;;;;;;;;;;;;;21.41;77.72;97956.34;5080975;28;19920;-75
2022/04/14 11:50:03;;;;;;;;;;;;;;;21.47;78.67;97955.00;5078185;28;19980;-75
2022/04/14 11:52:31;;;;;;;;;;;;;;;21.56;77.54;97954.94;5077361;28;19925;-76
2022/04/14 11:54:58;;;;;;;;;;;;;;;21.67;77.73;97952.56;5077296;28;19929;-76
2022/04/14 11:57:29;;;;;;;;;;;;;;;21.67;78.71;97952.56;5079961;28;19943;-76
2022/04/14 12:00:09;;;;;;;;;;;;;;;21.74;76.21;97952.84;5078393;28;20294;-76
2022/04/14 12:02:36;;;;;;;;;;;;;;;21.78;76.19;97945.63;5075799;28;19920;-75
2022/04/14 12:05:02;;;;;;;;;;;;;;;21.82;75.15;97949.22;5076864;28;19960;-75
2022/04/14 12:07:31;;;;;;;;;;;;;;;21.68;74.83;97949.53;5077741;28;19979;-75
2022/04/14 12:09:59;;;;;;;;;;;;;;;21.83;73.76;97948.09;5070864;28;19929;-75
2022/04/14 12:12:30;;;;;;;;;;;;;;;22.01;71.99;97936.75;5072729;28;19960;-75
2022/04/14 12:14:57;;;;;;;;;;;;;;;21.91;73.09;97933.69;5077310;28;20015;-76
2022/04/14 12:17:24;;;;;;;;;;;;;;;22.19;71.96;97937.34;5078934;28;19932;-76
2022/04/14 12:19:52;;;;;;;;;;;;;;;22.25;70.06;97929.78;5077312;28;19955;-74
2022/04/14 12:22:18;;;;;;;;;;;;;;;22.03;71.03;97939.16;5075278;28;19992;-78
2022/04/14 12:24:48;;;;;;;;;;;;;;;21.94;72.82;97939.22;5074707;28;19959;-77
2022/04/14 12:27:22;;;;;;;;;;;;;;;21.89;71.87;97933.22;5080032;28;19996;-79
2022/04/14 12:29:50;;;;;;;;;;;;;;;22.21;68.58;97926.13;5078682;28;19928;-77
2022/04/14 12:32:18;;;;;;;;;;;;;;;21.97;71.38;97929.63;5075203;28;20008;-76
2022/04/14 12:34:45;;;;;;;;;;;;;;;22.11;68.21;97934.72;5073955;28;20194;-76
2022/04/14 12:37:13;;;;;;;;;;;;;;;22.16;67.00;97927.13;5078305;28;19924;-76
2022/04/14 12:39:53;;;;;;;;;;;;;;;22.36;65.67;97926.28;5078182;28;19924;-75
2022/04/14 12:42:19;;;;;;;;;;;;;;;22.40;64.91;97927.19;5068068;28;19924;-76
2022/04/14 12:44:46;;;;;;;;;;;;;;;22.22;64.44;97925.03;5075027;28;19928;-76
2022/04/14 12:47:15;;;;;;;;;;;;;;;22.44;62.37;97927.28;5077110;28;19963;-75
2022/04/14 12:49:42;;;;;;;;;;;;;;;22.46;58.52;97931.28;5077068;28;19925;-75